Estación de Santa María

Ultimos registro cada 15 minutos 66
Estación Fecha / Hora Temperatura Humedad Lluvia Velocidad Dirección Radiación Presion
66 Santa María 01-09-2026 16:15 23,6 34,3 0 0 275 160,6 934,7
65 Santa María 01-09-2026 16:00 23,9 32,8 0 0 279 209,4 934,5
64 Santa María 01-09-2026 15:45 25 30,5 0 0 3 285,6 934,7
63 Santa María 01-09-2026 15:30 24,7 30,9 0 0 208 345,6 934,6
62 Santa María 01-09-2026 15:15 24,7 29 0 0 81 321,9 934,8
61 Santa María 01-09-2026 15:00 24,2 29,7 0 0 161 358,1 935,1
60 Santa María 01-09-2026 14:45 25 30 0 0 154 355,6 935,3
59 Santa María 01-09-2026 14:30 24,4 31,4 0 0 69 446,9 935,4
58 Santa María 01-09-2026 14:15 23,7 33,9 0 0 212 433,1 935,7
57 Santa María 01-09-2026 14:00 23,8 36,7 0 0 264 476,9 935,7
56 Santa María 01-09-2026 13:45 23,4 37,2 0 0 271 501,9 936
55 Santa María 01-09-2026 13:30 23,1 35,3 0 0 282 575,6 936,5
54 Santa María 01-09-2026 13:15 22,7 36,3 0 0 251 453,1 936,9
53 Santa María 01-09-2026 13:00 22,9 39,9 0 0 299 624,4 937
52 Santa María 01-09-2026 12:45 23 35,4 0 0,5 314 525,6 937,1
51 Santa María 01-09-2026 12:30 22,8 41,9 0 0 264 793,1 937,5
50 Santa María 01-09-2026 12:15 21,5 49 0 0,5 213 579,4 937,8
49 Santa María 01-09-2026 12:00 21,1 47,8 0 0,5 209 1091,9 938
48 Santa María 01-09-2026 11:45 20,4 48 0 0 213 1120,6 938,2
47 Santa María 01-09-2026 11:30 19,6 50,6 0 0,5 194 693,1 938,5
46 Santa María 01-09-2026 11:15 20 50,3 0 0 194 783,1 938,5
45 Santa María 01-09-2026 11:00 18,4 59,7 0 0 234 721,9 938,7
44 Santa María 01-09-2026 10:45 17,6 60,5 0 0 205 698,1 938,9
43 Santa María 01-09-2026 10:30 16,9 63,8 0 0 188 655,6 939,3
42 Santa María 01-09-2026 10:15 16,6 63 0 0 209 644,4 939,4
41 Santa María 01-09-2026 10:00 15,9 62,3 0 0 145 599,4 939,6
40 Santa María 01-09-2026 09:45 14,1 67,7 0 0 83 546,9 939,6
39 Santa María 01-09-2026 09:30 12,8 77,2 0 0 73 258,1 939,7
38 Santa María 01-09-2026 09:15 11,7 78,2 0 0 73 160,6 939,8
37 Santa María 01-09-2026 09:00 10,9 80,2 0 0 72 163,1 939,6
36 Santa María 01-09-2026 08:45 10 82,7 0 0 44 118,1 939,6
35 Santa María 01-09-2026 08:30 9,5 84 0 0 60 104,4 939,4
34 Santa María 01-09-2026 08:15 9 87 0 0 72 76,9 939,3
33 Santa María 01-09-2026 08:00 8,6 86,7 0 0 72 55,6 938,9
32 Santa María 01-09-2026 07:45 8,3 86,1 0 0 72 40,6 938,6
31 Santa María 01-09-2026 07:30 7,9 86,4 0 0 69 28,1 938,7
30 Santa María 01-09-2026 07:15 7,3 88 0 0 67 10,6 938,8
29 Santa María 01-09-2026 07:00 6,9 87,9 0 0 49 1,9 938,7
28 Santa María 01-09-2026 06:45 6,7 89,5 0 0 42 0,6 938,7
27 Santa María 01-09-2026 06:30 6,4 91,5 0 0 69 0,6 938,7
26 Santa María 01-09-2026 06:15 5,9 91,4 0 0 77 0,6 938,8
25 Santa María 01-09-2026 06:00 5,7 91,1 0 0 73 0,6 938,8
24 Santa María 01-09-2026 05:45 5,8 92,2 0 0 73 0,6 938,6
23 Santa María 01-09-2026 05:30 6 92,1 0 0 73 0,6 938,9
22 Santa María 01-09-2026 05:15 5,8 91,1 0 0 73 0,6 938,7
21 Santa María 01-09-2026 05:00 6,1 89,6 0 0 73 0,6 938,7
20 Santa María 01-09-2026 04:45 7 91 0 0 72 0,6 938,7
19 Santa María 01-09-2026 04:30 5,8 90,3 0 0 72 0,6 938,8
18 Santa María 01-09-2026 04:15 6,9 90,9 0 0 72 0,6 938,9
17 Santa María 01-09-2026 04:00 7,3 91,6 0 0 72 0,6 938,8
16 Santa María 01-09-2026 03:45 7,4 91,1 0 0 72 0,6 939
15 Santa María 01-09-2026 03:30 7,9 91,3 0 0 72 0,6 939,2
14 Santa María 01-09-2026 03:15 7,9 91,1 0 0 72 0,6 939,4
13 Santa María 01-09-2026 03:00 7,6 90,3 0 0 72 0,6 939,6
12 Santa María 01-09-2026 02:45 8 89,4 0 0 72 0,6 939,8
11 Santa María 01-09-2026 02:30 8,4 88,8 0 0 72 0,6 939,9
10 Santa María 01-09-2026 02:15 8,7 87,2 0 0 72 0,6 940,1
9 Santa María 01-09-2026 02:00 9,6 85,3 0 0 70 0,6 940,1
8 Santa María 01-09-2026 01:45 9,3 85,8 0 0 69 0,6 940,4
7 Santa María 01-09-2026 01:30 9,1 87,7 0 0 58 0,6 940,4
6 Santa María 01-09-2026 01:15 8,5 89,6 0 0 118 0,6 940,4
5 Santa María 01-09-2026 01:00 8,7 88,2 0 0 81 0,6 940,5
4 Santa María 01-09-2026 00:45 8,7 87,6 0 0 52 0,6 940,4
3 Santa María 01-09-2026 00:30 8,9 88,2 0 0 139 0,6 940,4
2 Santa María 01-09-2026 00:15 9,3 85,1 0 0 102 0,6 940,5
1 Santa María 01-09-2026 00:00 10 83,3 0 0 72 0,6 940,5